Time;durP1;ratioP1;P1;durP2;ratioP2;P2;SDS_P1;SDS_P2;PMS_P1;PMS_P2;Temp;Humidity;BMP_temperature;BMP_pressure;BME280_temperature;BME280_humidity;BME280_pressure;Samples;Min_cycle;Max_cycle;Signal;HPM_P1;HPM_P2
2021/03/29 00:00:07;;;;;;;6.70;4.08;;;;;;;5.58;78.05;100343.57;1644689;87;21205;-62
2021/03/29 00:02:35;;;;;;;5.72;3.62;;;;;;;5.50;78.22;100333.37;1660402;85;21536;-62
2021/03/29 00:05:05;;;;;;;4.85;3.15;;;;;;;5.46;78.39;100337.56;1680062;85;21139;-61
2021/03/29 00:07:33;;;;;;;5.35;3.27;;;;;;;5.52;77.99;100343.95;1676233;85;21689;-61
2021/03/29 00:10:05;;;;;;;5.70;3.08;;;;;;;5.46;78.06;100344.31;1676280;85;21623;-62
2021/03/29 00:12:35;;;;;;;4.67;3.00;;;;;;;5.37;78.38;100346.19;1676122;85;21224;-61
2021/03/29 00:15:06;;;;;;;5.60;3.60;;;;;;;5.40;78.23;100340.34;1676168;85;21174;-62
2021/03/29 00:17:38;;;;;;;5.40;3.95;;;;;;;5.42;78.12;100341.75;1676146;85;21172;-62
2021/03/29 00:20:11;;;;;;;5.28;3.10;;;;;;;5.33;78.33;100337.70;1676168;85;21142;-64
2021/03/29 00:22:40;;;;;;;4.47;3.30;;;;;;;5.31;78.54;100336.28;1671516;85;21638;-62
2021/03/29 00:25:13;;;;;;;4.50;3.12;;;;;;;5.32;78.50;100336.56;1676464;85;21171;-62
2021/03/29 00:27:40;;;;;;;5.35;3.47;;;;;;;5.28;78.63;100339.44;1676498;85;21158;-62
2021/03/29 00:30:18;;;;;;;4.78;2.98;;;;;;;5.23;78.84;100333.86;1676275;85;21207;-62
2021/03/29 00:32:47;;;;;;;5.55;3.40;;;;;;;5.26;78.86;100342.86;1646257;86;21734;-62
2021/03/29 00:35:16;;;;;;;6.62;3.47;;;;;;;5.27;78.68;100344.00;1644531;86;21712;-63
2021/03/29 00:37:50;;;;;;;5.28;3.25;;;;;;;5.22;78.90;100357.84;1663221;85;21232;-62
2021/03/29 00:40:19;;;;;;;4.92;3.52;;;;;;;5.15;79.19;100339.54;1655117;86;21470;-62
2021/03/29 00:42:58;;;;;;;4.33;2.80;;;;;;;5.20;78.97;100354.56;1698866;84;21704;-62
2021/03/29 00:45:27;;;;;;;5.72;3.55;;;;;;;5.16;79.10;100348.78;1691906;84;21703;-63
2021/03/29 00:47:54;;;;;;;5.08;3.50;;;;;;;5.08;79.42;100356.31;1703088;84;21219;-62
2021/03/29 00:50:43;;;;;;;4.45;3.20;;;;;;;5.16;79.11;100364.14;1686776;84;21181;-63
2021/03/29 00:53:13;;;;;;;5.30;3.33;;;;;;;5.17;78.95;100363.11;1706844;84;21165;-62
2021/03/29 00:55:43;;;;;;;6.15;3.58;;;;;;;5.07;79.41;100361.40;1689120;84;21271;-63
2021/03/29 00:58:11;;;;;;;4.90;3.22;;;;;;;5.14;79.17;100368.40;1695435;84;21196;-63
2021/03/29 01:00:49;;;;;;;4.80;3.40;;;;;;;5.20;78.96;100363.48;1692885;84;21169;-62
2021/03/29 01:03:20;;;;;;;5.50;4.20;;;;;;;5.15;79.15;100355.22;1709425;83;21167;-62
2021/03/29 01:06:01;;;;;;;6.15;3.70;;;;;;;5.11;79.19;100367.50;1707003;84;21201;-62
2021/03/29 01:08:30;;;;;;;6.03;3.77;;;;;;;5.11;79.25;100366.66;1706539;84;21194;-62
2021/03/29 01:10:57;;;;;;;6.20;3.90;;;;;;;5.11;79.22;100366.14;1676905;84;21185;-62
2021/03/29 01:13:27;;;;;;;5.12;3.60;;;;;;;5.10;79.31;100367.18;1662935;84;21196;-63
2021/03/29 01:15:58;;;;;;;6.10;3.72;;;;;;;5.09;79.26;100368.25;1654571;85;21185;-62
2021/03/29 01:18:25;;;;;;;6.80;4.00;;;;;;;5.09;79.27;100376.34;1661664;85;21621;-62
2021/03/29 01:21:05;;;;;;;5.40;3.77;;;;;;;5.06;79.30;100375.96;1688647;84;21126;-62
2021/03/29 01:23:32;;;;;;;6.95;4.37;;;;;;;5.07;79.50;100380.29;1679751;84;21170;-63
2021/03/29 01:26:37;;;;;;;6.80;3.92;;;;;;;5.10;79.31;100378.53;1673460;84;21284;-62
2021/03/29 01:29:05;;;;;;;5.33;3.35;;;;;;;5.09;79.27;100370.13;1688503;84;21191;-62
2021/03/29 01:31:33;;;;;;;5.80;3.65;;;;;;;5.06;79.39;100382.71;1703157;83;21154;-62
2021/03/29 01:34:02;;;;;;;5.65;3.65;;;;;;;5.09;79.34;100371.47;1706217;82;21133;-62
2021/03/29 01:36:31;;;;;;;6.53;4.03;;;;;;;5.08;79.29;100383.30;1705130;84;21695;-62
2021/03/29 01:38:59;;;;;;;5.87;4.15;;;;;;;5.03;79.52;100380.45;1688736;82;21216;-62
2021/03/29 01:41:26;;;;;;;6.10;4.05;;;;;;;5.00;79.64;100392.49;1709280;83;21459;-62
2021/03/29 01:43:54;;;;;;;6.10;3.95;;;;;;;5.01;79.52;100380.66;1704065;84;21691;-63
2021/03/29 01:46:22;;;;;;;5.83;4.12;;;;;;;5.03;79.48;100396.65;1699137;84;21118;-62
2021/03/29 01:48:50;;;;;;;5.70;3.98;;;;;;;4.94;79.74;100397.42;1700498;84;21505;-63
2021/03/29 01:51:18;;;;;;;6.22;4.40;;;;;;;5.00;79.57;100396.54;1632154;88;21177;-62
2021/03/29 01:53:46;;;;;;;6.35;4.12;;;;;;;5.06;79.43;100400.25;1664042;86;21637;-63
2021/03/29 01:56:13;;;;;;;5.45;3.85;;;;;;;4.99;79.57;100400.30;1670772;86;21606;-62
2021/03/29 01:58:41;;;;;;;6.35;4.20;;;;;;;4.95;79.65;100394.52;1670714;86;21111;-62
2021/03/29 02:01:11;;;;;;;5.92;3.90;;;;;;;4.98;79.68;100399.99;1671146;85;21233;-62
2021/03/29 02:03:40;;;;;;;7.20;4.50;;;;;;;5.03;79.45;100401.49;1668038;86;21180;-62
2021/03/29 02:06:08;;;;;;;6.65;4.37;;;;;;;5.01;79.55;100400.90;1669518;86;21200;-62
2021/03/29 02:08:36;;;;;;;6.33;4.22;;;;;;;4.96;79.70;100403.41;1706567;82;21309;-62
2021/03/29 02:11:04;;;;;;;5.75;4.00;;;;;;;5.00;79.53;100400.59;1660095;85;21637;-63
2021/03/29 02:13:37;;;;;;;6.47;4.00;;;;;;;5.03;79.36;100407.72;1700688;84;21330;-62
2021/03/29 02:16:11;;;;;;;6.22;4.35;;;;;;;4.96;79.53;100417.73;1699791;84;21215;-62
2021/03/29 02:18:53;;;;;;;6.97;4.00;;;;;;;4.94;79.68;100405.52;1700410;83;21732;-62
2021/03/29 02:21:24;;;;;;;5.42;3.72;;;;;;;5.00;79.52;100409.52;1708866;83;21162;-62
2021/03/29 02:23:55;;;;;;;6.45;3.90;;;;;;;4.93;79.62;100411.95;1708795;82;21601;-61
2021/03/29 02:26:30;;;;;;;8.53;4.25;;;;;;;4.95;79.58;100403.13;1694243;83;21153;-62
2021/03/29 02:28:57;;;;;;;7.50;4.17;;;;;;;4.88;79.85;100409.10;1634918;88;21243;-63
2021/03/29 02:31:26;;;;;;;6.05;3.90;;;;;;;4.88;79.87;100410.45;1703129;84;21616;-63
2021/03/29 02:33:56;;;;;;;7.30;3.98;;;;;;;4.92;79.76;100403.58;1703759;83;21141;-63
2021/03/29 02:36:26;;;;;;;6.17;4.35;;;;;;;4.88;79.83;100413.98;1653852;87;21617;-64
2021/03/29 02:38:53;;;;;;;5.90;4.05;;;;;;;4.86;79.88;100400.38;1665654;84;21627;-63
2021/03/29 02:41:24;;;;;;;6.45;3.58;;;;;;;4.89;79.84;100414.27;1668842;86;21185;-63
2021/03/29 02:43:51;;;;;;;5.55;3.52;;;;;;;4.89;79.81;100419.66;1670659;86;21214;-63
2021/03/29 02:46:26;;;;;;;6.22;4.33;;;;;;;4.88;79.86;100426.64;1668746;86;21605;-64
2021/03/29 02:48:55;;;;;;;5.95;3.87;;;;;;;4.80;80.05;100426.89;1653076;85;21180;-63
2021/03/29 02:51:22;;;;;;;5.87;4.10;;;;;;;4.84;79.90;100435.69;1654200;86;21589;-63
2021/03/29 02:53:57;;;;;;;5.58;3.70;;;;;;;4.74;80.27;100431.81;1670545;86;21193;-63
2021/03/29 02:56:29;;;;;;;6.83;3.92;;;;;;;4.74;80.27;100421.02;1659115;86;21573;-64
2021/03/29 02:59:04;;;;;;;5.78;3.55;;;;;;;4.76;80.20;100425.66;1642978;86;21244;-63
2021/03/29 03:01:33;;;;;;;6.08;3.83;;;;;;;4.78;80.15;100437.08;1712663;83;21581;-64
2021/03/29 03:04:02;;;;;;;6.97;4.20;;;;;;;4.82;79.95;100434.23;1717114;83;21244;-63
2021/03/29 03:06:30;;;;;;;7.30;3.98;;;;;;;4.79;79.94;100430.63;1703698;83;21157;-64
2021/03/29 03:09:03;;;;;;;6.47;4.03;;;;;;;4.75;80.13;100437.48;1654502;86;21177;-64
2021/03/29 03:11:34;;;;;;;6.20;3.47;;;;;;;4.81;79.86;100430.73;1628629;86;21632;-64
2021/03/29 03:14:05;;;;;;;5.42;3.70;;;;;;;4.76;79.97;100428.36;1656931;86;21155;-63
2021/03/29 03:16:37;;;;;;;5.33;3.27;;;;;;;4.77;80.04;100440.81;1635132;86;21173;-64
2021/03/29 03:19:07;;;;;;;6.40;3.58;;;;;;;4.80;79.78;100441.72;1710435;83;21557;-63
2021/03/29 03:21:36;;;;;;;5.75;3.40;;;;;;;4.76;79.96;100443.20;1712894;83;21133;-63
2021/03/29 03:24:06;;;;;;;5.50;3.45;;;;;;;4.70;80.05;100455.69;1713082;83;21357;-63
2021/03/29 03:26:34;;;;;;;5.85;3.35;;;;;;;4.76;79.82;100458.87;1707769;83;21691;-63
2021/03/29 03:29:02;;;;;;;6.50;3.65;;;;;;;4.74;79.89;100456.09;1700138;83;21295;-64
2021/03/29 03:31:31;;;;;;;4.92;2.92;;;;;;;4.66;80.09;100463.91;1698094;83;21287;-65
2021/03/29 03:34:01;;;;;;;5.60;3.47;;;;;;;4.69;80.02;100463.98;1636502;83;21201;-64
2021/03/29 03:36:32;;;;;;;6.28;3.60;;;;;;;4.77;79.75;100455.65;1706565;83;21446;-62
2021/03/29 03:38:59;;;;;;;5.67;3.83;;;;;;;4.71;79.94;100465.41;1700641;83;21137;-63
2021/03/29 03:41:31;;;;;;;5.87;4.08;;;;;;;4.68;80.01;100467.72;1714379;83;21141;-63
2021/03/29 03:44:00;;;;;;;5.58;3.17;;;;;;;4.68;79.94;100463.16;1691172;83;21327;-63
2021/03/29 03:46:31;;;;;;;6.03;4.10;;;;;;;4.75;79.71;100463.95;1711690;83;21149;-63
2021/03/29 03:49:12;;;;;;;6.87;3.47;;;;;;;4.65;80.01;100467.63;1717719;83;21193;-62
2021/03/29 03:51:41;;;;;;;6.17;3.52;;;;;;;4.69;79.93;100458.59;1719343;83;21700;-63
2021/03/29 03:54:09;;;;;;;6.75;4.00;;;;;;;4.77;79.67;100467.79;1651963;85;21740;-63
2021/03/29 03:56:37;;;;;;;7.35;4.05;;;;;;;4.70;79.79;100469.18;1644151;87;21601;-63
2021/03/29 03:59:05;;;;;;;6.35;3.90;;;;;;;4.69;79.86;100468.86;1689196;85;21197;-64
2021/03/29 04:02:05;;;;;;;7.12;4.03;;;;;;;4.77;79.67;100474.53;1644048;87;21324;-64
2021/03/29 04:04:34;;;;;;;6.30;4.05;;;;;;;4.72;79.70;100476.52;1691219;83;21700;-63
2021/03/29 04:07:03;;;;;;;9.30;4.78;;;;;;;4.73;79.78;100474.14;1689206;83;21601;-62
2021/03/29 04:12:09;;;;;;;6.83;3.80;;;;;;;4.67;79.93;100462.04;1719352;83;21161;-61
2021/03/29 04:14:38;;;;;;;6.80;4.00;;;;;;;4.76;79.62;100479.61;1717089;83;21153;-61
2021/03/29 04:17:06;;;;;;;8.33;4.62;;;;;;;4.78;79.53;100486.44;1719140;83;21640;-61
2021/03/29 04:19:35;;;;;;;7.65;4.50;;;;;;;4.73;79.64;100493.53;1717111;83;21601;-61
2021/03/29 04:22:04;;;;;;;8.35;4.72;;;;;;;4.68;79.94;100481.20;1703757;83;21129;-62
2021/03/29 04:24:33;;;;;;;8.93;5.05;;;;;;;4.73;79.75;100484.92;1689878;83;21606;-62
2021/03/29 04:27:02;;;;;;;9.85;5.00;;;;;;;4.74;79.73;100497.38;1689386;83;21153;-62
2021/03/29 04:29:30;;;;;;;9.13;5.53;;;;;;;4.71;79.75;100502.38;1644736;87;21250;-62
2021/03/29 04:31:57;;;;;;;8.03;5.35;;;;;;;4.73;79.77;100505.67;1671865;85;21186;-62
2021/03/29 04:34:25;;;;;;;7.55;5.00;;;;;;;4.78;79.55;100515.31;1677359;85;21275;-62
2021/03/29 04:36:55;;;;;;;8.35;5.30;;;;;;;4.73;79.71;100504.32;1708945;84;21186;-62
2021/03/29 04:39:22;;;;;;;10.20;5.47;;;;;;;4.83;79.50;100509.56;1693991;84;21122;-62
2021/03/29 04:41:50;;;;;;;9.08;5.95;;;;;;;4.86;79.33;100509.64;1714566;82;21666;-61
2021/03/29 04:44:18;;;;;;;10.55;5.85;;;;;;;4.75;79.68;100507.10;1690294;83;21584;-62
2021/03/29 04:46:46;;;;;;;11.93;7.10;;;;;;;4.83;79.39;100508.21;1691217;83;21338;-62
2021/03/29 04:49:14;;;;;;;11.75;6.75;;;;;;;4.86;79.27;100516.38;1681507;83;21191;-61
2021/03/29 04:51:41;;;;;;;8.35;5.78;;;;;;;4.79;79.44;100515.08;1689187;83;21605;-62
2021/03/29 04:54:09;;;;;;;10.78;6.90;;;;;;;4.86;79.36;100511.82;1682880;85;21331;-62
2021/03/29 04:58:05;;;;;;;11.60;7.62;;;;;;;4.92;79.26;100520.39;1760820;79;23054;-63
2021/03/29 05:00:32;;;;;;;9.73;6.90;;;;;;;4.81;79.47;100523.80;1633358;86;21740;-63
2021/03/29 05:03:00;;;;;;;10.88;6.75;;;;;;;4.86;79.22;100523.95;1662789;86;21765;-62
2021/03/29 05:05:28;;;;;;;12.13;7.00;;;;;;;4.83;79.42;100531.14;1656580;86;21216;-63
2021/03/29 05:07:55;;;;;;;10.75;7.30;;;;;;;4.86;79.27;100523.12;1671106;85;21337;-63
2021/03/29 05:10:23;;;;;;;9.80;6.95;;;;;;;4.91;79.13;100534.95;1673593;85;21168;-62
2021/03/29 05:12:53;;;;;;;12.37;8.33;;;;;;;4.89;79.25;100532.14;1675788;85;21181;-63
2021/03/29 05:15:23;;;;;;;11.65;8.18;;;;;;;4.86;79.31;100536.62;1677169;85;21576;-63
2021/03/29 05:17:53;;;;;;;12.05;8.00;;;;;;;4.94;79.11;100532.33;1643876;85;21238;-63
2021/03/29 05:20:23;;;;;;;15.45;7.87;;;;;;;4.88;79.25;100535.90;1671686;85;21487;-64
2021/03/29 05:22:51;;;;;;;12.30;7.90;;;;;;;4.88;79.30;100542.13;1624112;85;21351;-63
2021/03/29 05:25:19;;;;;;;12.93;8.58;;;;;;;4.95;79.17;100540.73;1676024;85;21608;-63
2021/03/29 05:27:47;;;;;;;12.80;8.58;;;;;;;4.82;79.38;100536.73;1677511;85;21284;-65
2021/03/29 05:30:17;;;;;;;12.28;7.67;;;;;;;4.82;79.54;100541.62;1667743;85;21173;-65
2021/03/29 05:32:44;;;;;;;13.25;8.70;;;;;;;4.87;79.44;100545.03;1611721;87;21686;-61
2021/03/29 05:35:12;;;;;;;13.08;9.15;;;;;;;4.80;79.76;100541.53;1651464;85;21337;-63
2021/03/29 05:37:40;;;;;;;11.22;7.75;;;;;;;4.84;79.63;100548.16;1651050;85;21389;-63
2021/03/29 05:40:10;;;;;;;13.85;9.28;;;;;;;4.91;79.42;100555.70;1634905;87;21659;-62
2021/03/29 05:42:38;;;;;;;13.22;8.80;;;;;;;4.87;79.52;100553.95;1643096;86;21236;-62
2021/03/29 05:45:09;;;;;;;13.20;9.35;;;;;;;4.88;79.53;100550.22;1664745;85;21193;-62
2021/03/29 05:47:37;;;;;;;14.87;9.45;;;;;;;4.95;79.31;100560.98;1623197;85;21612;-62
2021/03/29 05:50:11;;;;;;;13.53;9.40;;;;;;;4.92;79.47;100566.80;1646566;86;21160;-63
2021/03/29 05:52:40;;;;;;;14.13;8.63;;;;;;;4.97;79.45;100566.97;1667156;85;21172;-63
2021/03/29 05:55:16;;;;;;;14.47;9.45;;;;;;;5.02;79.17;100564.47;1648914;87;21597;-63
2021/03/29 05:58:04;;;;;;;13.30;9.18;;;;;;;4.94;79.41;100567.41;1666055;84;21702;-63
2021/03/29 06:00:34;;;;;;;13.38;9.03;;;;;;;5.00;79.35;100567.89;1639504;86;21600;-63
2021/03/29 06:03:23;;;;;;;11.88;8.50;;;;;;;5.08;79.15;100573.56;1661644;86;21164;-63
2021/03/29 06:06:01;;;;;;;12.78;8.70;;;;;;;5.07;79.15;100571.89;1694266;84;21148;-63
2021/03/29 06:08:29;;;;;;;16.20;10.20;;;;;;;5.05;79.29;100578.05;1663722;86;21210;-64
2021/03/29 06:10:58;;;;;;;16.52;11.33;;;;;;;5.08;79.11;100581.66;1678285;84;21175;-64
2021/03/29 06:13:30;;;;;;;14.87;10.32;;;;;;;5.15;78.73;100587.84;1693216;84;21237;-64
2021/03/29 06:16:06;;;;;;;13.72;9.63;;;;;;;4.92;78.93;100557.36;1676709;84;21349;-65
2021/03/29 06:18:35;;;;;;;12.68;8.35;;;;;;;5.20;78.81;100590.22;1671862;84;21158;-65
2021/03/29 06:21:11;;;;;;;17.55;11.38;;;;;;;5.24;78.64;100590.63;1688406;84;21198;-64
2021/03/29 06:23:43;;;;;;;12.00;8.63;;;;;;;5.20;78.79;100596.97;1681362;84;21209;-63
2021/03/29 06:26:31;;;;;;;49.83;27.10;;;;;;;5.25;78.64;100598.48;1648328;86;21183;-63
2021/03/29 06:28:58;;;;;;;84.22;41.60;;;;;;;5.30;78.53;100608.12;1680629;84;21195;-63
2021/03/29 06:31:53;;;;;;;14.28;10.05;;;;;;;5.23;78.56;100606.50;1653316;86;21152;-63
2021/03/29 06:34:34;;;;;;;16.70;11.25;;;;;;;5.34;78.32;100608.52;1659643;85;21701;-63
2021/03/29 06:37:08;;;;;;;104.27;82.00;;;;;;;5.35;78.34;100610.98;1661737;85;21597;-63
2021/03/29 06:39:38;;;;;;;60.75;42.33;;;;;;;5.31;78.53;100613.84;1672526;84;21213;-62
2021/03/29 06:42:08;;;;;;;17.82;12.82;;;;;;;5.39;78.23;100611.38;1694665;84;21182;-63
2021/03/29 06:44:37;;;;;;;18.05;13.20;;;;;;;5.46;77.83;100615.70;1696252;84;21195;-63
2021/03/29 06:47:18;;;;;;;19.05;13.08;;;;;;;5.41;77.91;100618.77;1673418;84;21232;-62
2021/03/29 06:49:50;;;;;;;18.37;12.82;;;;;;;5.40;77.95;100624.68;1672156;84;21192;-61
2021/03/29 06:52:29;;;;;;;14.58;10.95;;;;;;;5.48;77.71;100629.83;1673494;84;21698;-62
2021/03/29 06:55:19;;;;;;;15.60;10.93;;;;;;;5.46;77.73;100636.47;1690101;84;21127;-61
2021/03/29 06:58:08;;;;;;;17.27;12.47;;;;;;;5.42;77.87;100637.98;1667810;85;21731;-62
2021/03/29 07:00:38;;;;;;;29.55;19.48;;;;;;;5.46;77.75;100633.25;1636345;88;21199;-62
2021/03/29 07:03:08;;;;;;;17.05;11.83;;;;;;;5.44;77.79;100633.17;1664722;86;21192;-62
2021/03/29 07:05:37;;;;;;;22.98;16.97;;;;;;;5.47;77.86;100636.78;1641143;86;21591;-60
2021/03/29 07:08:07;;;;;;;36.13;24.27;;;;;;;5.51;77.71;100640.20;1688791;85;21307;-62
2021/03/29 07:10:34;;;;;;;20.32;12.30;;;;;;;5.49;77.58;100632.81;1663185;86;21155;-62
2021/03/29 07:13:02;;;;;;;25.48;16.27;;;;;;;5.46;77.59;100636.47;1653976;85;21929;-62
2021/03/29 07:15:29;;;;;;;32.13;20.55;;;;;;;5.53;77.51;100639.44;1656749;86;21178;-62
2021/03/29 07:17:59;;;;;;;20.35;14.10;;;;;;;5.54;77.61;100642.98;1692171;84;21282;-62
2021/03/29 07:20:29;;;;;;;16.57;11.95;;;;;;;5.53;77.47;100646.71;1662664;86;21203;-61
2021/03/29 07:22:56;;;;;;;20.00;13.45;;;;;;;5.65;77.32;100648.20;1648508;85;21193;-61
2021/03/29 07:25:35;;;;;;;18.73;13.40;;;;;;;5.66;77.32;100650.70;1661026;85;21202;-61
2021/03/29 07:28:08;;;;;;;18.42;12.82;;;;;;;5.73;77.29;100652.01;1689349;85;21373;-61
2021/03/29 07:30:54;;;;;;;35.23;21.30;;;;;;;5.88;77.05;100656.63;1662894;86;21558;-61
2021/03/29 07:33:23;;;;;;;19.48;12.78;;;;;;;5.86;76.61;100658.17;1681820;85;21313;-61
2021/03/29 07:35:53;;;;;;;21.07;13.75;;;;;;;5.85;76.50;100655.13;1678644;85;21177;-62
2021/03/29 07:38:23;;;;;;;19.15;13.15;;;;;;;5.90;76.05;100672.08;1682556;85;21193;-62
2021/03/29 07:40:57;;;;;;;23.10;16.15;;;;;;;5.89;76.21;100667.20;1682776;85;21201;-62
2021/03/29 07:43:26;;;;;;;24.05;15.45;;;;;;;5.87;76.46;100672.52;1651501;85;21167;-62
2021/03/29 07:46:03;;;;;;;61.08;36.70;;;;;;;5.98;76.39;100676.71;1683483;85;21686;-60
2021/03/29 07:48:36;;;;;;;20.92;14.70;;;;;;;6.11;75.60;100672.23;1697060;84;21175;-61
2021/03/29 07:51:14;;;;;;;28.17;18.20;;;;;;;6.05;75.67;100679.36;1704082;84;21123;-60
2021/03/29 07:53:45;;;;;;;24.92;15.80;;;;;;;6.00;75.80;100673.25;1700036;84;21189;-62
2021/03/29 07:56:38;;;;;;;70.15;37.70;;;;;;;6.07;75.58;100680.48;1702292;84;21511;-62
2021/03/29 07:59:06;;;;;;;23.05;16.42;;;;;;;6.10;75.38;100683.56;1704025;84;21220;-62
2021/03/29 08:01:59;;;;;;;24.40;16.10;;;;;;;6.03;75.56;100689.55;1701546;84;21210;-62
2021/03/29 08:05:16;;;;;;;27.93;17.95;;;;;;;5.98;75.84;100690.74;1686167;84;21155;-60
2021/03/29 08:07:46;;;;;;;35.95;22.87;;;;;;;5.96;75.74;100688.24;1703084;83;21208;-62
2021/03/29 08:10:16;;;;;;;87.17;37.03;;;;;;;5.88;76.00;100699.31;1699614;84;21165;-61
2021/03/29 08:12:59;;;;;;;54.80;28.30;;;;;;;5.97;75.79;100705.30;1664504;84;21464;-62
2021/03/29 08:16:09;;;;;;;26.80;17.62;;;;;;;5.99;75.86;100709.42;1692254;83;21553;-62
2021/03/29 08:19:25;;;;;;;22.32;15.93;;;;;;;5.98;75.97;100714.55;1691446;84;21129;-61
2021/03/29 08:22:11;;;;;;;23.02;16.37;;;;;;;6.15;75.41;100712.13;1658304;86;21662;-62
2021/03/29 08:24:42;;;;;;;;;;;;;;;6.09;75.33;100722.48;1659741;86;21207;-63
2021/03/29 08:27:22;;;;;;;28.80;18.57;;;;;;;6.13;75.23;100716.11;1684535;85;20437;-62
2021/03/29 08:29:52;;;;;;;24.27;17.15;;;;;;;6.17;75.07;100714.60;1609646;88;21229;-62
2021/03/29 08:32:36;;;;;;;54.55;32.98;;;;;;;6.12;75.15;100711.23;1677901;85;21165;-63
2021/03/29 08:35:13;;;;;;;27.22;20.43;;;;;;;6.19;75.18;100711.17;1684735;85;21201;-63
2021/03/29 08:37:47;;;;;;;32.13;22.22;;;;;;;6.31;74.55;100716.16;1684864;85;21601;-64
2021/03/29 08:40:25;;;;;;;26.90;19.17;;;;;;;6.35;74.54;100714.67;1654207;85;21229;-61
2021/03/29 08:43:03;;;;;;;43.83;27.95;;;;;;;6.35;74.40;100715.50;1662032;84;21154;-62
2021/03/29 08:45:33;;;;;;;27.00;20.05;;;;;;;6.43;74.33;100717.94;1672879;85;21593;-61
2021/03/29 08:48:04;;;;;;;25.88;18.23;;;;;;;6.40;74.03;100720.27;1668425;86;21234;-62
2021/03/29 08:50:39;;;;;;;27.00;18.32;;;;;;;6.39;74.30;100719.95;1611934;87;21354;-61
2021/03/29 08:53:10;;;;;;;33.70;21.85;;;;;;;6.49;73.98;100726.52;1626119;87;21196;-61
2021/03/29 08:55:42;;;;;;;45.48;26.35;;;;;;;6.53;74.23;100727.42;1637066;87;21228;-61
2021/03/29 08:58:10;;;;;;;26.10;17.55;;;;;;;6.57;74.22;100722.71;1675739;85;21189;-61
2021/03/29 09:00:43;;;;;;;27.70;19.00;;;;;;;6.75;73.24;100728.16;1649312;86;21209;-61
2021/03/29 09:03:17;;;;;;;40.48;21.90;;;;;;;6.87;72.74;100727.71;1683704;85;21197;-63
2021/03/29 09:05:45;;;;;;;34.58;22.80;;;;;;;6.91;72.67;100723.52;1666485;85;21217;-62
2021/03/29 09:08:34;;;;;;;27.17;19.20;;;;;;;6.89;72.58;100725.63;1654436;85;21205;-63
2021/03/29 09:11:02;;;;;;;25.57;18.50;;;;;;;6.98;72.04;100723.44;1762977;81;21146;-59
2021/03/29 09:13:31;;;;;;;23.75;17.50;;;;;;;7.08;71.68;100731.06;1737844;81;21183;-62
2021/03/29 09:15:59;;;;;;;27.30;19.17;;;;;;;7.05;71.95;100735.03;1737403;82;21278;-62
2021/03/29 09:18:28;;;;;;;26.33;19.85;;;;;;;7.01;71.53;100745.48;1702039;82;21164;-62
2021/03/29 09:20:56;;;;;;;28.73;19.75;;;;;;;7.10;71.49;100741.97;1701725;83;21750;-62
2021/03/29 09:23:31;;;;;;;31.40;22.05;;;;;;;7.12;71.22;100743.11;1741307;82;21176;-62
2021/03/29 09:26:02;;;;;;;34.27;22.27;;;;;;;7.11;71.69;100744.98;1694818;84;21146;-62
2021/03/29 09:28:40;;;;;;;29.27;20.60;;;;;;;7.19;71.20;100741.95;1671869;85;21577;-62
2021/03/29 09:31:23;;;;;;;24.37;18.37;;;;;;;7.30;70.48;100739.85;1646239;85;21660;-62
2021/03/29 09:33:51;;;;;;;29.37;20.02;;;;;;;7.42;69.87;100740.77;1677539;84;21252;-64
2021/03/29 09:36:22;;;;;;;39.53;26.33;;;;;;;7.42;70.39;100742.64;1666563;86;21195;-62
2021/03/29 09:41:34;;;;;;;53.30;33.92;;;;;;;7.72;69.95;100746.20;1761189;79;22969;-63
2021/03/29 09:44:08;;;;;;;25.82;17.57;;;;;;;7.76;69.42;100748.77;1716359;82;21523;-63
2021/03/29 09:46:35;;;;;;;337.20;193.80;;;;;;;7.72;69.07;100755.69;1702855;83;21181;-62
2021/03/29 09:49:10;;;;;;;34.90;23.02;;;;;;;7.61;68.79;100744.81;1710979;83;21176;-63
2021/03/29 09:51:40;;;;;;;53.85;35.88;;;;;;;7.59;69.08;100759.10;1712516;83;21125;-61
2021/03/29 09:54:29;;;;;;;31.33;22.55;;;;;;;7.61;68.43;100761.08;1713008;83;21659;-61
2021/03/29 09:56:58;;;;;;;38.38;25.85;;;;;;;7.54;68.36;100763.03;1714118;83;21383;-63
2021/03/29 09:59:31;;;;;;;30.30;21.37;;;;;;;7.57;68.83;100768.00;1704373;83;21184;-62
2021/03/29 10:01:58;;;;;;;28.98;20.02;;;;;;;7.60;68.69;100773.79;1709751;83;21149;-64
2021/03/29 10:04:27;;;;;;;61.10;43.98;;;;;;;7.69;68.87;100769.70;1704794;83;21226;-62
2021/03/29 10:06:56;;;;;;;196.68;120.87;;;;;;;7.72;68.69;100774.66;1715904;83;21181;-62
2021/03/29 10:09:34;;;;;;;155.25;101.00;;;;;;;7.67;68.89;100781.84;1709848;83;21194;-62
2021/03/29 10:12:03;;;;;;;74.30;47.20;;;;;;;7.56;69.25;100785.30;1715274;83;21600;-60
2021/03/29 10:14:37;;;;;;;55.85;36.68;;;;;;;7.60;69.49;100787.86;1703793;83;21194;-61
2021/03/29 10:17:20;;;;;;;51.05;34.38;;;;;;;7.56;69.32;100790.72;1703550;83;21588;-60
2021/03/29 10:19:49;;;;;;;45.30;30.90;;;;;;;7.48;69.92;100789.97;1705846;83;21137;-61
2021/03/29 10:22:18;;;;;;;32.03;24.02;;;;;;;7.50;70.20;100800.08;1704597;83;21110;-62
2021/03/29 10:27:53;;;;;;;32.80;22.80;;;;;;;7.48;70.10;100794.55;1803223;79;22801;-62
2021/03/29 10:30:25;;;;;;;46.28;29.32;;;;;;;7.39;70.62;100800.82;1757761;81;21596;-63
2021/03/29 10:33:00;;;;;;;31.95;20.60;;;;;;;7.46;70.15;100804.28;1759631;80;21150;-62
2021/03/29 10:35:31;;;;;;;24.57;18.52;;;;;;;7.54;69.88;100800.45;1757458;81;21180;-63
2021/03/29 10:38:02;;;;;;;25.88;17.77;;;;;;;7.53;69.59;100804.20;1757299;81;21161;-62
2021/03/29 10:40:31;;;;;;;29.20;21.57;;;;;;;7.53;69.65;100798.78;1760282;80;21142;-63
2021/03/29 10:43:00;;;;;;;29.98;21.93;;;;;;;7.51;69.42;100810.36;1778807;80;21166;-62
2021/03/29 10:45:28;;;;;;;26.70;18.98;;;;;;;7.60;69.05;100805.48;1695778;83;21192;-63
2021/03/29 10:47:55;;;;;;;31.35;20.20;;;;;;;7.67;68.88;100794.86;1724587;83;21211;-59
2021/03/29 10:50:24;;;;;;;36.40;24.50;;;;;;;7.67;68.77;100798.93;1723903;83;21308;-60
2021/03/29 10:52:53;;;;;;;36.17;24.27;;;;;;;7.60;68.67;100806.31;1700011;83;21242;-61
2021/03/29 10:55:21;;;;;;;31.42;23.22;;;;;;;7.63;68.46;100810.44;1670671;84;21763;-58
2021/03/29 10:57:49;;;;;;;32.25;22.32;;;;;;;7.65;68.35;100807.80;1709559;83;21193;-61
2021/03/29 11:00:18;;;;;;;38.15;24.23;;;;;;;7.62;68.61;100810.13;1711100;83;21593;-61
2021/03/29 11:02:46;;;;;;;29.15;23.00;;;;;;;7.64;68.68;100814.29;1707009;83;21187;-62
2021/03/29 11:05:26;;;;;;;29.32;21.73;;;;;;;7.84;68.44;100802.67;1706101;84;21149;-61
2021/03/29 11:07:55;;;;;;;33.58;23.00;;;;;;;7.87;67.67;100806.27;1679956;84;21192;-62
2021/03/29 11:10:24;;;;;;;35.60;23.75;;;;;;;7.75;68.20;100816.77;1660754;85;21141;-62
2021/03/29 11:12:52;;;;;;;32.83;22.10;;;;;;;7.64;68.44;100817.52;1674442;85;21326;-62
2021/03/29 11:15:20;;;;;;;29.35;19.27;;;;;;;7.75;68.59;100824.91;1659396;85;21710;-62
2021/03/29 11:17:49;;;;;;;29.18;21.17;;;;;;;7.82;68.31;100821.06;1658861;85;21685;-62
2021/03/29 11:20:18;;;;;;;32.75;21.75;;;;;;;7.74;68.17;100820.53;1657133;85;21136;-63
2021/03/29 11:22:47;;;;;;;31.02;21.17;;;;;;;7.66;68.73;100824.36;1658849;85;21298;-62
2021/03/29 11:25:15;;;;;;;29.87;20.17;;;;;;;7.62;68.67;100818.26;1673843;85;21153;-62
2021/03/29 11:27:43;;;;;;;27.70;21.07;;;;;;;7.69;68.51;100821.20;1656917;85;21212;-62
2021/03/29 11:30:14;;;;;;;29.90;20.50;;;;;;;7.69;68.56;100817.66;1673006;85;21565;-62
2021/03/29 11:32:43;;;;;;;30.75;21.62;;;;;;;7.67;68.72;100817.90;1667239;85;21620;-62
2021/03/29 11:35:11;;;;;;;30.05;21.45;;;;;;;7.68;68.51;100824.98;1672222;85;21632;-62
2021/03/29 11:37:39;;;;;;;30.52;22.13;;;;;;;7.79;68.07;100817.45;1666225;85;21141;-61
2021/03/29 11:40:10;;;;;;;28.05;20.55;;;;;;;7.85;68.15;100825.19;1677160;85;21149;-62
2021/03/29 11:42:38;;;;;;;27.13;19.57;;;;;;;7.81;67.82;100819.39;1682248;85;21299;-62
2021/03/29 11:45:07;;;;;;;28.55;21.60;;;;;;;7.85;68.24;100817.05;1684222;85;21311;-63
2021/03/29 11:47:35;;;;;;;30.70;21.57;;;;;;;7.94;68.09;100815.67;1683971;85;21283;-62
2021/03/29 11:50:05;;;;;;;29.12;21.07;;;;;;;8.07;67.67;100815.52;1669929;85;21140;-62
2021/03/29 11:52:34;;;;;;;29.30;21.35;;;;;;;8.13;67.57;100823.25;1666935;85;21298;-63
2021/03/29 11:55:06;;;;;;;32.48;22.77;;;;;;;8.17;67.42;100813.09;1670475;85;21660;-62